Flight Track Log - Related Links

Times and Time Zones

All times are in EDT time to prevent confusion due to time zone crossing. See the GLA31B flight status page for this flight to view local times or setup timezone preferences in your user account.

Time Position Orientation Groundspeed Altitude Reporting Facility
EDT Latitude Longitude Course Direction KTS MPH feet Rate Location/Type
Sat 08:49:34 AM 41.8156 -103.5186 176° South 187 215 5,900  Level Denver Center
Sat 08:50:35 AM 41.7628 -103.5131 176° South 183 211 7,600 1,525 Climbing Denver Center
Sat 08:51:36 AM 41.7039 -103.5106 178° South 189 217 9,000 1,289 Climbing Denver Center
Sat 08:52:36 AM 41.6525 -103.5103 180° South 193 222 10,200 1,190 Climbing Denver Center
Sat 08:53:37 AM 41.5983 -103.5156 184° South 200 230 11,400 1,230 Climbing Denver Center
Sat 08:54:38 AM 41.5339 -103.5283 188° South 207 238 12,700 1,131 Climbing Denver Center
Sat 08:55:39 AM 41.4778 -103.5383 188° South 212 244 13,700 984 Climbing Denver Center
Sat 08:56:40 AM 41.4175 -103.5481 187° South 223 257 14,700 645 Climbing Denver Center
Sat 08:57:40 AM 41.3436 -103.5564 185° South 234 269 15,000 149 Climbing Denver Center
Sat 08:58:41 AM 41.2722 -103.5656 186° South 258 297 15,000  Level Denver Center
Sat 08:59:42 AM 41.1989 -103.5775 187° South 272 313 15,000  Level Denver Center
Sat 09:00:43 AM 41.1114 -103.5914 187° South 281 323 15,000  Level Denver Center
Sat 09:01:44 AM 41.0478 -103.6064 190° South 286 329 15,000  Level Denver Center
Sat 09:02:44 AM 40.9533 -103.6192 186° South 286 329 15,000  Level Denver Center
Sat 09:03:45 AM 40.8742 -103.6278 185° South 285 328 15,000  Level Denver Center
Sat 09:04:46 AM 40.7969 -103.6564 196° South 290 334 15,000  Level Denver Center
Sat 09:05:47 AM 40.7258 -103.7019 206° Southwest 287 330 15,000  Level Denver Center
Sat 09:06:47 AM 40.6542 -103.7472 206° Southwest 287 330 15,000 -50 Level Denver Center
Sat 09:07:48 AM 40.5825 -103.7925 206° Southwest 285 328 14,900 -639 Descending Denver Center
Sat 09:08:49 AM 40.5147 -103.8392 208° Southwest 278 320 13,700 -984 Descending Denver Center
Sat 09:09:50 AM 40.4389 -103.8972 210° Southwest 286 329 12,900 -344 Descending Denver Center
Sat 09:10:51 AM 40.3794 -103.9650 221° Southwest 283 326 13,000 50 Climbing Denver Center
Sat 09:11:51 AM 40.3136 -104.0169 211° Southwest 278 320 13,000  Level Denver Center
Sat 09:12:52 AM 40.2386 -104.0497 198° South 282 325 13,000 -393 Level Denver Center
Sat 09:13:53 AM 40.1642 -104.0839 199° South 283 326 12,200 -984 Descending Denver Center
Sat 09:14:54 AM 40.0831 -104.1264 202° Southwest 292 336 11,000 -985 Descending Denver Center
Sat 09:16:07 AM 40.0214 -104.1919 219° Southwest 286 329 10,000 -586 Descending Denver Center
Sat 09:17:07 AM 39.9622 -104.2769 228° Southwest 278 320 9,700 -595 Descending Denver Center
Sat 09:18:08 AM 39.9194 -104.3694 239° Southwest 277 319 8,800 -934 Descending Denver Center
Sat 09:19:09 AM 39.8822 -104.4533 240° Southwest 269 310 7,800 -1,131 Descending Denver Center
Sat 09:20:10 AM 39.8769 -104.5444 266° West 253 291 6,500 -1,131 Descending Denver Center
Sat 09:21:11 AM 39.8772 -104.6072 270° West 165 190 5,500 -595 Descending Denver Center
Sat 09:22:11 AM 39.8764 -104.6506 269° West 137 158 5,300 -200 Descending Denver Center
Sat 09:24:00 AM 39.8500 -104.6667 229° Southwest  Level FlightAware Approximate
Sat 09:31:00 AM 39.8617 -104.6732 229° Southwest  Level Estimated
Sat 09:32:00 AM 39.8617 -104.6732 229° Southwest  Level Estimated

Login

Don't have an account? Register now (free) for customized features, flight alerts, and more!